Blacksburg, South Carolina
Current Conditions -  °F | °C
As of 7:35 AM on Monday 22 Dec 2014 (Local Time) from KEHO Reporting Station
Drizzle Drizzle  
Wind Chill: 32°   Ceiling: 600
Heat Index: 38°   Visibility: 4mi
Dew Point: 37°   Wind: 9mph
Humidity: 94%   Direction: 40°NE
Pressure: 30.12"   Gusts: NA
Location:  35.12°N, 81.52°W
Report Text: KEHO 221235Z AUTO 04008KT 4SM -DZ OVC006 04/03 A3012 RMK AO2 T00350026
Loading
Personal Weather Stations






























Interactive Weather Map New forecast layout! Learn more

10-Day Weather Forecast

Advertisements
Track Severe Weather on mobile